Time;durP1;ratioP1;P1;durP2;ratioP2;P2;SDS_P1;SDS_P2;PMS_P1;PMS_P2;Temp;Humidity;BMP_temperature;BMP_pressure;BME280_temperature;BME280_humidity;BME280_pressure;Samples;Min_cycle;Max_cycle;Signal;HPM_P1;HPM_P2
2021/01/13 00:01:06;;;;;;;64.10;33.83;;;;;;;-1.22;69.33;93313.34;1758254;80;22137;-59
2021/01/13 00:03:34;;;;;;;81.53;41.85;;;;;;;-1.21;69.53;93313.52;1763122;80;21032;-59
2021/01/13 00:06:03;;;;;;;109.57;56.20;;;;;;;-1.25;69.72;93311.46;1769342;80;21136;-58
2021/01/13 00:08:31;;;;;;;127.05;63.10;;;;;;;-1.37;70.00;93302.00;1755388;80;21127;-57
2021/01/13 00:11:00;;;;;;;124.05;64.40;;;;;;;-1.38;70.37;93305.09;1763108;80;21105;-57
2021/01/13 00:13:28;;;;;;;119.10;57.30;;;;;;;-1.29;70.32;93304.02;1764943;80;21281;-58
2021/01/13 00:15:57;;;;;;;107.37;52.80;;;;;;;-1.26;70.20;93306.67;1776384;80;21080;-57
2021/01/13 00:18:25;;;;;;;137.57;64.77;;;;;;;-1.21;69.92;93300.03;1755268;80;21486;-58
2021/01/13 00:20:54;;;;;;;156.50;73.45;;;;;;;-1.19;69.46;93301.73;1756561;80;21511;-58
2021/01/13 00:23:23;;;;;;;158.42;76.28;;;;;;;-1.14;69.36;93301.29;1764800;80;21234;-57
2021/01/13 00:25:51;;;;;;;148.38;72.70;;;;;;;-1.10;69.03;93299.30;1750749;80;21271;-57
2021/01/13 00:28:19;;;;;;;154.63;72.53;;;;;;;-1.11;68.98;93287.73;1760776;80;21127;-57
2021/01/13 00:30:48;;;;;;;127.15;61.95;;;;;;;-1.05;68.75;93296.91;1763795;80;21195;-57
2021/01/13 00:33:17;;;;;;;171.95;77.75;;;;;;;-1.04;68.62;93294.95;1769272;80;21068;-58
2021/01/13 00:35:46;;;;;;;173.32;76.87;;;;;;;-1.09;68.24;93291.38;1775349;80;21056;-58
2021/01/13 00:38:14;;;;;;;163.97;78.92;;;;;;;-1.17;68.36;93287.28;1771887;80;21206;-58
2021/01/13 00:40:42;;;;;;;176.07;77.85;;;;;;;-1.18;68.80;93291.15;1765899;80;21144;-58
2021/01/13 00:43:11;;;;;;;162.77;73.95;;;;;;;-1.12;68.79;93286.20;1755413;80;21257;-59
2021/01/13 00:45:39;;;;;;;133.50;59.80;;;;;;;-1.05;68.81;93283.98;1763522;80;21179;-58
2021/01/13 00:48:09;;;;;;;120.82;56.53;;;;;;;-0.99;68.85;93283.72;1769084;80;21463;-57
2021/01/13 00:50:37;;;;;;;84.40;41.58;;;;;;;-0.94;68.64;93284.59;1760172;80;21151;-57
2021/01/13 00:53:05;;;;;;;104.72;47.83;;;;;;;-0.89;68.65;93266.01;1759791;80;21068;-58
2021/01/13 00:55:33;;;;;;;87.85;43.45;;;;;;;-0.77;68.35;93276.80;1772231;80;21223;-57
2021/01/13 00:58:02;;;;;;;61.65;33.33;;;;;;;-0.73;68.04;93272.09;1758328;80;21100;-57
2021/01/13 01:00:31;;;;;;;78.25;40.73;;;;;;;-0.72;68.16;93270.92;1742657;80;21107;-58
2021/01/13 01:03:01;;;;;;;61.70;33.38;;;;;;;-0.61;68.06;93272.86;1760914;80;21206;-57
2021/01/13 01:05:29;;;;;;;57.88;29.07;;;;;;;-0.51;67.88;93276.73;1758245;80;21152;-58
2021/01/13 01:07:58;;;;;;;50.55;26.93;;;;;;;-0.45;67.70;93265.61;1760905;80;21135;-57
2021/01/13 01:10:31;;;;;;;44.85;24.87;;;;;;;-0.37;67.42;93266.25;1755532;80;21048;-56
2021/01/13 01:13:01;;;;;;;42.65;25.40;;;;;;;-0.34;67.38;93253.27;1760084;80;21151;-57
2021/01/13 01:15:29;;;;;;;47.53;26.10;;;;;;;-0.24;67.14;93259.06;1753524;80;21277;-57
2021/01/13 01:17:57;;;;;;;45.00;25.10;;;;;;;-0.12;66.80;93253.80;1760254;80;21192;-57
2021/01/13 01:20:26;;;;;;;38.88;24.47;;;;;;;-0.09;66.64;93250.27;1767221;80;21068;-58
2021/01/13 01:22:59;;;;;;;39.50;22.98;;;;;;;-0.01;66.61;93251.06;1768625;80;21067;-56
2021/01/13 01:25:29;;;;;;;33.33;20.12;;;;;;;0.07;66.48;93248.37;1775376;80;21483;-58
2021/01/13 01:27:59;;;;;;;35.15;21.02;;;;;;;0.18;66.17;93246.23;1756742;80;21720;-58
2021/01/13 01:30:29;;;;;;;42.80;25.00;;;;;;;0.27;65.68;93249.14;1754879;80;21072;-58
2021/01/13 01:32:58;;;;;;;45.80;24.32;;;;;;;0.23;65.63;93247.08;1765447;80;21215;-59
2021/01/13 01:35:27;;;;;;;42.45;23.20;;;;;;;0.22;65.69;93251.57;1762412;80;21067;-57
2021/01/13 01:37:56;;;;;;;23.65;16.73;;;;;;;0.26;65.87;93242.19;1762077;80;21186;-57
2021/01/13 01:40:26;;;;;;;39.53;22.82;;;;;;;0.34;65.61;93235.46;1756428;80;21315;-59
2021/01/13 01:42:54;;;;;;;47.40;25.52;;;;;;;0.38;65.36;93238.84;1749681;80;21068;-58
2021/01/13 01:45:26;;;;;;;74.65;39.45;;;;;;;0.41;65.17;93235.30;1760042;80;21194;-58
2021/01/13 01:48:18;;;;;;;97.22;48.15;;;;;;;0.40;64.68;93232.42;1773186;80;21056;-58
2021/01/13 01:50:48;;;;;;;110.90;53.87;;;;;;;0.34;64.45;93239.52;1759709;80;21103;-58
2021/01/13 01:53:33;;;;;;;102.32;53.30;;;;;;;0.22;64.43;93244.20;1757522;80;21238;-59
2021/01/13 01:56:13;;;;;;;104.32;56.00;;;;;;;0.15;64.60;93244.36;1761126;80;21109;-59
2021/01/13 01:58:41;;;;;;;94.90;47.53;;;;;;;0.11;64.81;93249.66;1756743;80;21540;-58
2021/01/13 02:01:09;;;;;;;83.90;43.60;;;;;;;0.08;65.01;93236.38;1762711;80;21685;-58
2021/01/13 02:03:55;;;;;;;76.37;42.90;;;;;;;0.11;65.12;93237.50;1762746;80;21085;-58
2021/01/13 02:06:27;;;;;;;86.30;45.50;;;;;;;0.13;65.28;93235.14;1758013;80;21387;-58
2021/01/13 02:08:55;;;;;;;102.73;50.30;;;;;;;0.17;65.33;93233.89;1759255;80;21095;-58
2021/01/13 02:11:27;;;;;;;90.45;47.05;;;;;;;0.26;65.59;93227.92;1766888;80;21480;-57
2021/01/13 02:13:56;;;;;;;90.50;47.30;;;;;;;0.33;65.48;93233.16;1764605;80;21088;-58
2021/01/13 02:16:24;;;;;;;91.70;47.53;;;;;;;0.39;65.43;93232.86;1773387;80;21064;-57
2021/01/13 02:18:53;;;;;;;90.55;48.38;;;;;;;0.43;65.39;93230.83;1751997;80;22243;-59
2021/01/13 02:21:21;;;;;;;89.45;45.70;;;;;;;0.48;65.60;93228.41;1759997;80;21140;-57
2021/01/13 02:24:13;;;;;;;91.67;45.63;;;;;;;0.54;65.49;93229.41;1767030;80;21566;-58
2021/01/13 02:27:20;;;;;;;88.07;44.73;;;;;;;0.60;65.38;93226.98;1730319;82;21120;-56
2021/01/13 02:29:52;;;;;;;95.35;44.88;;;;;;;0.67;65.19;93221.39;1759874;80;21192;-58
2021/01/13 02:32:26;;;;;;;101.40;44.13;;;;;;;0.72;65.14;93231.13;1723840;81;22089;-58
2021/01/13 02:35:21;;;;;;;89.05;41.88;;;;;;;0.80;65.15;93229.77;1746354;80;21507;-57
2021/01/13 02:38:09;;;;;;;88.22;39.50;;;;;;;0.85;65.04;93229.29;1771521;80;21628;-57
2021/01/13 02:40:37;;;;;;;71.45;35.23;;;;;;;0.89;64.91;93228.61;1778918;80;21056;-58
2021/01/13 02:43:10;;;;;;;78.45;37.08;;;;;;;0.89;64.81;93219.71;1740342;80;21154;-58
2021/01/13 02:45:43;;;;;;;86.40;44.53;;;;;;;0.82;65.09;93223.38;1763532;80;21392;-57
2021/01/13 02:48:13;;;;;;;;;;;;;;;0.86;65.15;93221.91;1768751;80;21113;-57
2021/01/13 02:50:56;;;;;;;118.42;56.05;;;;;;;0.87;65.29;93222.86;1753876;80;20239;-58
2021/01/13 02:53:33;;;;;;;115.82;56.95;;;;;;;0.89;65.26;93225.91;1760821;79;21515;-60
2021/01/13 02:56:05;;;;;;;115.30;57.80;;;;;;;0.91;65.18;93226.23;1771677;80;21064;-57
2021/01/13 02:58:37;;;;;;;114.77;57.58;;;;;;;1.00;64.95;93224.30;1778696;80;21332;-59
2021/01/13 03:01:08;;;;;;;105.45;52.25;;;;;;;1.08;64.88;93216.16;1775621;80;21219;-57
2021/01/13 03:03:37;;;;;;;120.10;59.50;;;;;;;1.10;64.86;93217.87;1753257;80;21266;-57
2021/01/13 03:06:08;;;;;;;101.75;54.88;;;;;;;1.05;64.97;93219.14;1753105;81;21065;-57
2021/01/13 03:09:01;;;;;;;103.15;51.50;;;;;;;1.06;65.24;93217.95;1760394;80;21060;-57
2021/01/13 03:11:30;;;;;;;87.92;47.30;;;;;;;1.12;65.09;93216.85;1761127;80;21384;-57
2021/01/13 03:14:15;;;;;;;109.70;53.87;;;;;;;1.27;64.97;93220.70;1753564;80;21115;-56
2021/01/13 03:16:51;;;;;;;118.53;56.75;;;;;;;1.37;64.75;93215.05;1752467;80;21127;-58
2021/01/13 03:19:45;;;;;;;143.22;64.82;;;;;;;1.44;64.54;93214.86;1763803;80;21266;-57
2021/01/13 03:22:21;;;;;;;90.85;46.15;;;;;;;1.46;64.59;93217.89;1761067;80;21623;-57
2021/01/13 03:25:04;;;;;;;81.75;39.98;;;;;;;1.44;64.70;93218.14;1759642;80;21430;-58
2021/01/13 03:27:36;;;;;;;81.63;42.80;;;;;;;1.44;64.70;93199.95;1765614;80;21208;-58
2021/01/13 03:30:06;;;;;;;92.45;45.95;;;;;;;1.57;64.64;93205.42;1758309;80;21056;-57
2021/01/13 03:33:04;;;;;;;85.00;43.40;;;;;;;1.64;64.48;93203.88;1778755;80;21080;-57
2021/01/13 03:35:57;;;;;;;82.80;43.50;;;;;;;1.61;64.21;93200.09;1757310;80;21614;-58
2021/01/13 03:38:28;;;;;;;79.40;40.50;;;;;;;1.58;64.29;93202.30;1736264;80;21374;-58
2021/01/13 03:41:07;;;;;;;73.47;40.12;;;;;;;1.60;64.36;93193.73;1753138;80;21313;-57
2021/01/13 03:43:39;;;;;;;83.85;44.53;;;;;;;1.65;64.23;93202.09;1770344;80;21494;-58
2021/01/13 03:46:09;;;;;;;89.10;46.55;;;;;;;1.69;64.27;93205.47;1776929;80;21500;-58
2021/01/13 03:48:47;;;;;;;86.02;44.93;;;;;;;1.77;64.08;93202.75;1760724;80;21139;-57
2021/01/13 03:51:46;;;;;;;83.92;42.83;;;;;;;1.84;64.07;93199.84;1758590;80;21358;-56
2021/01/13 03:54:15;;;;;;;82.05;40.10;;;;;;;1.86;63.92;93190.67;1778089;80;21187;-57
2021/01/13 03:57:06;;;;;;;72.55;38.13;;;;;;;1.87;63.80;93197.03;1766515;80;21152;-58
2021/01/13 04:00:04;;;;;;;57.53;30.27;;;;;;;1.86;63.98;93187.97;1751855;80;21052;-57
2021/01/13 04:03:11;;;;;;;59.65;32.55;;;;;;;1.82;64.12;93195.44;1751615;80;21065;-58
2021/01/13 04:05:42;;;;;;;64.60;34.80;;;;;;;1.78;64.36;93194.78;1767319;80;22355;-58
2021/01/13 04:08:11;;;;;;;60.65;32.20;;;;;;;1.84;63.96;93192.48;1770501;80;21123;-58
2021/01/13 04:10:40;;;;;;;84.97;43.90;;;;;;;1.79;63.83;93188.17;1758717;80;21155;-57
2021/01/13 04:13:35;;;;;;;80.75;46.35;;;;;;;1.77;64.05;93189.94;1759160;80;21489;-57
2021/01/13 04:16:04;;;;;;;85.35;46.60;;;;;;;1.88;63.92;93186.94;1766493;80;21060;-58
2021/01/13 04:18:34;;;;;;;89.60;47.95;;;;;;;1.98;63.80;93187.25;1760549;80;22141;-56
2021/01/13 04:21:04;;;;;;;88.50;46.83;;;;;;;2.02;63.67;93197.39;1756996;80;21095;-58
2021/01/13 04:23:33;;;;;;;82.92;45.05;;;;;;;2.04;63.63;93197.72;1762229;80;21551;-58
2021/01/13 04:26:02;;;;;;;66.70;38.15;;;;;;;2.03;63.56;93196.97;1770625;80;21162;-57
2021/01/13 04:28:31;;;;;;;76.30;42.93;;;;;;;2.05;63.33;93183.74;1764554;80;21136;-58
2021/01/13 04:31:02;;;;;;;75.00;42.73;;;;;;;2.06;63.27;93194.75;1753456;80;21384;-58
2021/01/13 04:33:31;;;;;;;79.75;44.18;;;;;;;2.04;63.21;93190.94;1779814;80;21134;-57
2021/01/13 04:36:00;;;;;;;84.60;45.12;;;;;;;2.04;63.32;93188.23;1775448;80;21211;-57
2021/01/13 04:38:30;;;;;;;79.82;43.38;;;;;;;2.04;63.28;93189.00;1761959;80;21575;-58
2021/01/13 04:41:14;;;;;;;68.30;38.88;;;;;;;2.02;63.35;93190.03;1755143;80;21639;-56
2021/01/13 04:44:00;;;;;;;66.75;37.08;;;;;;;2.05;63.25;93182.97;1754109;80;21204;-57
2021/01/13 04:46:37;;;;;;;76.12;42.38;;;;;;;2.09;63.25;93179.55;1763629;80;21193;-57
2021/01/13 04:49:17;;;;;;;92.92;52.25;;;;;;;2.15;62.94;93172.42;1756194;80;21468;-57
2021/01/13 04:51:47;;;;;;;108.32;58.45;;;;;;;2.12;62.78;93181.43;1760801;80;21151;-56
2021/01/13 04:54:17;;;;;;;100.33;56.55;;;;;;;1.99;63.11;93174.59;1769064;80;21453;-58
2021/01/13 04:57:03;;;;;;;96.72;53.52;;;;;;;1.93;63.47;93184.47;1768011;80;21143;-57
2021/01/13 05:00:06;;;;;;;106.63;56.60;;;;;;;1.97;63.60;93184.38;1775328;80;21603;-58
2021/01/13 05:03:02;;;;;;;100.00;50.38;;;;;;;2.02;63.68;93185.19;1751190;80;21076;-58
2021/01/13 05:05:31;;;;;;;85.28;45.45;;;;;;;1.97;63.70;93184.38;1757704;80;21128;-58
2021/01/13 05:08:16;;;;;;;100.97;52.85;;;;;;;1.94;64.09;93179.81;1763016;80;21106;-58
2021/01/13 05:10:44;;;;;;;;;;;;;;;1.98;63.81;93177.76;1768207;80;22368;-57
2021/01/13 05:13:17;;;;;;;107.55;56.20;;;;;;;1.88;63.41;93182.29;1768303;80;20239;-58
2021/01/13 05:15:55;;;;;;;112.62;61.40;;;;;;;1.77;64.01;93181.81;1751580;80;21223;-57
2021/01/13 05:18:52;;;;;;;107.37;56.08;;;;;;;1.86;64.06;93183.32;1763803;80;21067;-57
2021/01/13 05:21:26;;;;;;;94.47;48.28;;;;;;;1.90;64.20;93184.55;1779740;80;21111;-58
2021/01/13 05:23:58;;;;;;;109.70;54.10;;;;;;;1.89;63.84;93177.03;1760747;80;21218;-57
2021/01/13 05:26:27;;;;;;;98.87;53.78;;;;;;;1.70;64.06;93183.95;1744592;80;21084;-57
2021/01/13 05:29:28;;;;;;;104.55;59.05;;;;;;;1.65;64.27;93179.06;1758860;80;21072;-57
2021/01/13 05:31:56;;;;;;;150.20;76.82;;;;;;;1.68;64.34;93182.27;1712748;82;21103;-58
2021/01/13 05:34:25;;;;;;;102.72;60.15;;;;;;;1.73;64.35;93179.02;1660277;83;21115;-58
2021/01/13 05:37:10;;;;;;;92.57;53.50;;;;;;;1.66;64.42;93182.55;1713248;80;21394;-58
2021/01/13 05:39:49;;;;;;;100.50;55.73;;;;;;;1.53;64.93;93170.29;1888642;76;22405;-58
2021/01/13 05:42:19;;;;;;;104.63;55.08;;;;;;;1.41;65.28;93177.79;1775524;80;21163;-58
2021/01/13 05:44:50;;;;;;;113.30;58.60;;;;;;;1.49;65.54;93180.47;1773965;81;21374;-58
2021/01/13 05:47:35;;;;;;;109.87;62.70;;;;;;;1.61;65.37;93191.18;1775349;80;21174;-58
2021/01/13 05:50:06;;;;;;;108.30;60.20;;;;;;;1.72;65.15;93189.70;1772923;81;21092;-58
2021/01/13 05:52:35;;;;;;;105.85;58.00;;;;;;;1.74;64.88;93199.55;1775325;80;21083;-59
2021/01/13 05:55:06;;;;;;;111.52;59.10;;;;;;;1.74;64.93;93191.41;1746545;81;21056;-57
2021/01/13 05:57:36;;;;;;;108.78;59.75;;;;;;;1.73;64.90;93183.09;1747714;80;21559;-57
2021/01/13 06:00:06;;;;;;;107.80;62.10;;;;;;;1.73;64.93;93191.22;1774014;81;21531;-57
2021/01/13 06:02:40;;;;;;;126.60;71.72;;;;;;;1.74;64.98;93184.03;1773044;80;21622;-57
2021/01/13 06:05:11;;;;;;;159.03;85.28;;;;;;;1.71;64.96;93182.02;1774012;81;21614;-58
2021/01/13 06:07:42;;;;;;;178.45;92.08;;;;;;;1.51;65.07;93191.63;1775264;80;21111;-60
2021/01/13 06:10:11;;;;;;;186.45;99.03;;;;;;;1.37;65.45;93185.25;1774070;81;23293;-60
2021/01/13 06:12:43;;;;;;;186.00;101.18;;;;;;;1.40;65.70;93189.81;1723393;80;21535;-60
2021/01/13 06:15:13;;;;;;;203.83;109.37;;;;;;;1.52;65.75;93197.22;1774232;81;21570;-58
2021/01/13 06:17:55;;;;;;;214.17;109.95;;;;;;;1.60;65.43;93198.56;1775256;80;21665;-59
2021/01/13 06:20:25;;;;;;;199.10;102.07;;;;;;;1.65;65.56;93191.88;1775431;80;21515;-60
2021/01/13 06:22:56;;;;;;;181.20;97.85;;;;;;;1.74;65.33;93194.87;1774016;81;22069;-58
2021/01/13 06:25:30;;;;;;;184.00;98.15;;;;;;;1.80;65.29;93201.28;1775263;80;21000;-59
2021/01/13 06:28:37;;;;;;;179.03;92.02;;;;;;;1.81;65.44;93197.98;1773884;81;21182;-59
2021/01/13 06:31:07;;;;;;;215.47;106.87;;;;;;;1.87;65.25;93190.84;1775252;80;21761;-58
2021/01/13 06:33:43;;;;;;;325.73;153.42;;;;;;;1.85;64.95;93195.35;1773901;81;21072;-57
2021/01/13 06:36:31;;;;;;;333.23;157.75;;;;;;;1.84;65.02;93197.13;1747780;80;21220;-58
2021/01/13 06:39:01;;;;;;;247.27;122.40;;;;;;;1.86;64.93;93191.45;1772898;80;21551;-58
2021/01/13 06:41:34;;;;;;;266.50;132.90;;;;;;;1.89;65.20;93193.88;1775314;80;21071;-61
2021/01/13 06:44:06;;;;;;;221.35;117.80;;;;;;;2.00;64.94;93193.74;1772342;81;21718;-59
2021/01/13 06:46:35;;;;;;;209.87;112.00;;;;;;;2.02;64.96;93195.45;1775510;80;21134;-59
2021/01/13 06:49:20;;;;;;;201.32;112.85;;;;;;;2.00;65.04;93203.23;1773657;81;21413;-58
2021/01/13 06:51:50;;;;;;;214.80;116.75;;;;;;;2.01;65.16;93202.07;1774559;80;21159;-58
2021/01/13 06:54:21;;;;;;;208.90;110.80;;;;;;;2.08;65.37;93201.86;1773321;81;21207;-57
2021/01/13 06:56:52;;;;;;;206.82;112.20;;;;;;;2.22;65.13;93204.17;1774641;80;21170;-60
2021/01/13 06:59:22;;;;;;;219.55;111.88;;;;;;;2.33;64.72;93201.89;1773436;81;21568;-57
2021/01/13 07:01:58;;;;;;;209.90;113.10;;;;;;;2.38;64.54;93199.25;1751026;80;21198;-58
2021/01/13 07:04:27;;;;;;;198.95;114.90;;;;;;;2.33;64.70;93197.08;1830265;77;21101;-58
2021/01/13 07:07:06;;;;;;;208.15;113.97;;;;;;;2.37;64.73;93205.87;1837513;77;21142;-57
2021/01/13 07:09:40;;;;;;;200.28;116.57;;;;;;;2.41;64.69;93206.52;1826672;77;21084;-56
2021/01/13 07:12:15;;;;;;;223.35;126.05;;;;;;;2.39;64.60;93216.47;1824533;77;21184;-59
2021/01/13 07:14:52;;;;;;;212.93;118.33;;;;;;;2.39;64.69;93222.47;1820073;78;21333;-58
2021/01/13 07:17:25;;;;;;;218.63;123.47;;;;;;;2.36;64.69;93217.91;1803076;78;21108;-58
2021/01/13 07:19:55;;;;;;;234.62;130.25;;;;;;;2.30;64.82;93212.88;1817371;77;21162;-58
2021/01/13 07:22:27;;;;;;;235.38;134.12;;;;;;;2.26;64.96;93220.33;1815510;78;21159;-57
2021/01/13 07:24:55;;;;;;;257.67;137.20;;;;;;;2.29;65.03;93224.91;1822621;77;21658;-62
2021/01/13 07:27:24;;;;;;;228.32;120.67;;;;;;;2.35;64.89;93224.53;1815653;79;21367;-59
2021/01/13 07:29:52;;;;;;;219.93;122.70;;;;;;;2.42;64.70;93223.73;1815714;77;21505;-60
2021/01/13 07:32:31;;;;;;;217.70;113.70;;;;;;;2.34;64.70;93218.95;1816217;77;21194;-59
2021/01/13 07:35:09;;;;;;;182.12;104.75;;;;;;;2.27;64.79;93224.56;1821627;77;21194;-57
2021/01/13 07:37:49;;;;;;;160.85;90.03;;;;;;;2.22;65.02;93223.16;1846487;77;21078;-58
2021/01/13 07:40:36;;;;;;;144.10;84.17;;;;;;;2.28;65.00;93223.37;1816177;77;22087;-58
2021/01/13 07:43:07;;;;;;;152.87;86.30;;;;;;;2.39;64.58;93221.12;1826452;77;21079;-57
2021/01/13 07:45:45;;;;;;;148.25;81.08;;;;;;;2.46;64.22;93234.47;1819103;77;21143;-57
2021/01/13 07:48:32;;;;;;;161.05;84.95;;;;;;;2.38;63.74;93235.88;1818239;77;21057;-59
2021/01/13 07:51:08;;;;;;;104.87;58.13;;;;;;;2.34;63.42;93237.94;1796170;77;21535;-60
2021/01/13 07:53:38;;;;;;;50.67;30.20;;;;;;;2.28;62.46;93237.70;1835264;77;21298;-59
2021/01/13 07:56:10;;;;;;;58.05;34.88;;;;;;;2.13;61.91;93233.12;1839864;77;21130;-59
2021/01/13 07:58:37;;;;;;;17.95;13.70;;;;;;;2.03;61.60;93232.23;1815439;78;21119;-59
2021/01/13 08:01:38;;;;;;;27.77;17.32;;;;;;;2.08;59.77;93244.47;1778283;79;21439;-58
2021/01/13 08:04:48;;;;;;;29.30;17.30;;;;;;;2.11;60.00;93243.64;1818109;79;21576;-58
2021/01/13 08:07:18;;;;;;;17.25;11.12;;;;;;;2.21;59.53;93245.28;1836073;77;21384;-62
2021/01/13 08:09:51;;;;;;;12.75;10.72;;;;;;;2.22;58.57;93239.44;1808313;78;21481;-60
2021/01/13 08:12:52;;;;;;;18.02;12.30;;;;;;;2.24;57.50;93242.48;1830280;77;21100;-61
2021/01/13 08:15:28;;;;;;;14.47;11.30;;;;;;;2.29;56.93;93247.97;1833427;77;21587;-62
2021/01/13 08:18:39;;;;;;;17.82;10.23;;;;;;;2.43;56.40;93246.19;1821690;77;21540;-61
2021/01/13 08:21:22;;;;;;;19.30;13.32;;;;;;;2.50;55.63;93240.58;1815606;77;21205;-60
2021/01/13 08:23:51;;;;;;;13.28;10.15;;;;;;;2.54;55.85;93245.30;1830802;77;21134;-61
2021/01/13 08:26:20;;;;;;;18.30;12.10;;;;;;;2.53;54.88;93245.13;1818397;77;21131;-61
2021/01/13 08:28:51;;;;;;;15.88;11.95;;;;;;;2.52;54.87;93250.39;1826064;77;21166;-61
2021/01/13 08:31:25;;;;;;;15.75;10.30;;;;;;;2.55;55.18;93254.95;1819339;77;21127;-61
2021/01/13 08:34:09;;;;;;;12.93;7.95;;;;;;;2.58;55.30;93254.86;1818800;77;21112;-61
2021/01/13 08:36:41;;;;;;;15.80;11.70;;;;;;;2.62;54.70;93254.73;1823831;77;21187;-61
2021/01/13 08:39:15;;;;;;;7.62;6.92;;;;;;;2.58;54.85;93260.88;1813933;77;21134;-67
2021/01/13 08:41:44;;;;;;;8.75;7.87;;;;;;;2.66;53.87;93264.30;1827154;77;21476;-62
2021/01/13 08:44:19;;;;;;;10.70;9.60;;;;;;;2.72;54.32;93265.89;1827697;77;21600;-61
2021/01/13 08:47:02;;;;;;;7.47;6.70;;;;;;;2.74;53.82;93267.58;1837206;77;21146;-62
2021/01/13 08:49:32;;;;;;;8.50;7.53;;;;;;;2.73;53.58;93260.01;1807955;77;21214;-61
2021/01/13 08:52:26;;;;;;;9.80;6.47;;;;;;;2.73;53.84;93249.77;1818138;77;21559;-59
2021/01/13 08:55:02;;;;;;;12.43;10.32;;;;;;;2.76;53.57;93249.67;1817580;77;21638;-61
2021/01/13 08:57:51;;;;;;;8.03;7.22;;;;;;;2.79;53.42;93249.38;1829011;77;21138;-61
2021/01/13 09:00:21;;;;;;;9.18;8.28;;;;;;;2.85;53.41;93251.73;1823385;77;21384;-61
2021/01/13 09:03:05;;;;;;;15.55;8.45;;;;;;;2.86;53.25;93251.28;1828777;77;21111;-63
2021/01/13 09:05:36;;;;;;;8.00;7.20;;;;;;;2.85;52.96;93250.38;1823912;77;21079;-61
2021/01/13 09:08:09;;;;;;;11.43;9.68;;;;;;;2.77;52.95;93247.70;1822635;77;21500;-60
2021/01/13 09:10:54;;;;;;;12.95;10.55;;;;;;;2.71;53.73;93250.19;1836007;77;21194;-62
2021/01/13 09:13:38;;;;;;;12.00;7.00;;;;;;;2.75;53.98;93243.30;1818759;77;21361;-62
2021/01/13 09:16:28;;;;;;;7.25;6.17;;;;;;;2.72;53.87;93240.10;1830941;77;21138;-61
2021/01/13 09:19:01;;;;;;;7.55;6.03;;;;;;;2.69;53.62;93242.33;1818442;77;21114;-61
2021/01/13 09:21:31;;;;;;;14.00;9.70;;;;;;;2.61;53.62;93235.58;1824414;77;21179;-60
2021/01/13 09:24:00;;;;;;;22.87;11.75;;;;;;;2.64;53.89;93239.55;1831585;77;21110;-61
2021/01/13 09:26:34;;;;;;;15.85;10.38;;;;;;;2.72;54.17;93237.39;1823405;77;21360;-61
2021/01/13 09:29:08;;;;;;;16.17;8.93;;;;;;;2.73;54.06;93237.55;1816350;77;21121;-58
2021/01/13 09:31:38;;;;;;;27.25;12.28;;;;;;;2.74;53.97;93237.12;1831784;77;21480;-60
2021/01/13 09:34:08;;;;;;;17.73;12.03;;;;;;;2.82;53.73;93237.64;1817934;77;21187;-60
2021/01/13 09:36:58;;;;;;;11.38;8.90;;;;;;;2.88;53.70;93234.57;1826929;77;21146;-61
2021/01/13 09:39:38;;;;;;;16.27;10.23;;;;;;;2.93;52.75;93239.45;1817763;77;21187;-60
2021/01/13 09:42:08;;;;;;;9.55;8.55;;;;;;;2.94;52.92;93239.02;1825799;77;21576;-61
2021/01/13 09:44:37;;;;;;;14.23;8.13;;;;;;;2.96;52.12;93232.56;1818844;77;21159;-61
2021/01/13 09:47:25;;;;;;;10.30;8.08;;;;;;;2.93;52.19;93232.66;1821085;77;21121;-62
2021/01/13 09:49:57;;;;;;;16.95;9.85;;;;;;;2.88;52.37;93226.42;1832584;77;21373;-62
2021/01/13 09:52:26;;;;;;;19.12;10.38;;;;;;;2.94;52.44;93221.38;1828251;77;22350;-60
2021/01/13 09:55:00;;;;;;;14.65;6.45;;;;;;;3.06;52.56;93223.91;1815116;77;21079;-61
2021/01/13 09:57:28;;;;;;;13.22;6.70;;;;;;;3.10;51.31;93219.90;1815743;77;21635;-61
2021/01/13 10:00:09;;;;;;;11.65;7.83;;;;;;;3.08;50.99;93216.09;1795118;77;21182;-63
2021/01/13 10:02:41;;;;;;;8.73;7.03;;;;;;;3.05;51.52;93216.97;1793713;77;21146;-62
2021/01/13 10:05:11;;;;;;;16.15;10.03;;;;;;;3.00;51.61;93218.85;1813367;77;21253;-61
2021/01/13 10:07:40;;;;;;;17.37;7.35;;;;;;;3.02;51.73;93215.13;1823624;77;21522;-62
2021/01/13 10:10:10;;;;;;;8.78;6.03;;;;;;;3.10;51.28;93210.98;1819471;77;21159;-61
2021/01/13 10:12:46;;;;;;;8.40;6.65;;;;;;;3.14;51.42;93209.67;1820329;77;21618;-61
2021/01/13 10:15:15;;;;;;;15.58;8.58;;;;;;;3.14;51.31;93213.75;1819510;77;21007;-61
2021/01/13 10:17:44;;;;;;;17.23;8.65;;;;;;;3.15;51.72;93198.19;1826406;77;21138;-61
2021/01/13 10:20:24;;;;;;;11.90;7.95;;;;;;;3.11;52.21;93198.91;1819353;77;21101;-60
2021/01/13 10:22:52;;;;;;;19.50;10.23;;;;;;;2.98;52.60;93195.44;1803819;77;21181;-60
2021/01/13 10:25:26;;;;;;;15.48;10.13;;;;;;;2.96;52.72;93192.41;1816999;77;21208;-60
2021/01/13 10:27:54;;;;;;;57.35;13.13;;;;;;;3.11;52.49;93185.33;1824859;77;21150;-61
2021/01/13 10:30:25;;;;;;;16.02;8.23;;;;;;;3.26;52.59;93191.21;1819420;77;21368;-61
2021/01/13 10:32:55;;;;;;;12.00;8.40;;;;;;;3.29;52.51;93184.16;1823626;77;21147;-61
2021/01/13 10:35:39;;;;;;;19.95;8.83;;;;;;;3.21;52.53;93184.23;1827519;77;21512;-60
2021/01/13 10:38:08;;;;;;;13.10;7.08;;;;;;;3.19;52.75;93186.61;1826284;77;21154;-63
2021/01/13 10:40:39;;;;;;;23.90;8.03;;;;;;;3.25;52.30;93186.98;1770091;77;21119;-61
2021/01/13 10:43:10;;;;;;;29.72;8.10;;;;;;;3.37;52.44;93183.48;1820869;77;21338;-61
2021/01/13 10:45:41;;;;;;;12.68;6.42;;;;;;;3.37;52.10;93178.05;1819990;77;21154;-63
2021/01/13 10:48:12;;;;;;;14.05;8.45;;;;;;;3.30;52.12;93185.67;1823489;77;21174;-61
2021/01/13 10:50:40;;;;;;;46.30;12.40;;;;;;;3.21;52.20;93182.88;1825975;77;21166;-61
2021/01/13 10:53:09;;;;;;;21.33;12.33;;;;;;;3.12;52.60;93171.91;1826848;77;21173;-61
2021/01/13 10:55:37;;;;;;;24.82;10.93;;;;;;;3.09;52.95;93172.17;1825573;77;21184;-61
2021/01/13 10:58:08;;;;;;;22.75;13.50;;;;;;;3.08;52.90;93169.30;1792881;79;21147;-64
2021/01/13 11:00:37;;;;;;;26.68;13.13;;;;;;;3.15;52.64;93176.46;1757445;80;21139;-62
2021/01/13 11:03:07;;;;;;;10.23;7.95;;;;;;;3.21;52.44;93167.33;1777758;79;21135;-66
2021/01/13 11:05:35;;;;;;;16.45;10.78;;;;;;;3.23;52.04;93162.82;1790399;79;21507;-64
2021/01/13 11:08:05;;;;;;;21.17;12.75;;;;;;;3.26;52.17;93161.33;1784321;79;22346;-63
2021/01/13 11:10:34;;;;;;;15.60;9.50;;;;;;;3.31;52.32;93165.45;1783125;79;21358;-63
2021/01/13 11:15:43;;;;;;;13.35;9.35;;;;;;;3.36;51.75;93173.04;1859188;76;22769;-60
2021/01/13 11:18:13;;;;;;;12.58;8.90;;;;;;;3.14;52.21;93165.44;1825747;77;21076;-61
2021/01/13 11:20:42;;;;;;;10.20;8.30;;;;;;;3.01;52.31;93166.05;1837779;77;21538;-60
2021/01/13 11:23:14;;;;;;;8.45;7.50;;;;;;;2.89;52.70;93165.49;1846630;77;21129;-62
2021/01/13 11:25:44;;;;;;;24.80;13.25;;;;;;;2.81;52.93;93165.53;1835593;77;21464;-58
2021/01/13 11:28:15;;;;;;;16.07;9.95;;;;;;;2.78;53.15;93160.40;1836105;77;21075;-60
2021/01/13 11:30:50;;;;;;;14.30;9.83;;;;;;;2.74;53.21;93166.55;1843019;77;21581;-58
2021/01/13 11:33:21;;;;;;;9.40;8.60;;;;;;;2.69;53.45;93162.25;1842451;77;22229;-59
2021/01/13 11:35:53;;;;;;;8.93;7.43;;;;;;;2.65;53.54;93160.25;1839367;77;21182;-60
2021/01/13 11:38:46;;;;;;;10.53;8.90;;;;;;;2.64;53.89;93153.27;1849326;77;21408;-60
2021/01/13 11:41:50;;;;;;;9.73;8.73;;;;;;;2.61;54.05;93162.30;1845628;77;22087;-58
2021/01/13 11:44:41;;;;;;;17.40;8.83;;;;;;;2.60;54.14;93162.13;1825248;77;21171;-60
2021/01/13 11:47:26;;;;;;;16.27;9.20;;;;;;;2.60;54.36;93164.84;1824021;77;21385;-60
2021/01/13 11:49:59;;;;;;;11.25;9.88;;;;;;;2.59;54.32;93170.89;1836262;77;21179;-61
2021/01/13 11:52:33;;;;;;;70.25;44.67;;;;;;;2.59;54.01;93172.83;1834938;77;21151;-59
2021/01/13 11:55:02;;;;;;;48.52;29.60;;;;;;;2.53;54.01;93175.93;1839593;77;21170;-59
2021/01/13 11:57:36;;;;;;;24.98;17.50;;;;;;;2.57;54.30;93181.42;1789613;79;21543;-59
2021/01/13 12:00:21;;;;;;;50.67;34.90;;;;;;;2.67;54.42;93182.28;1841781;77;21496;-57
2021/01/13 12:02:54;;;;;;;33.00;20.32;;;;;;;2.78;54.51;93182.70;1833689;77;21080;-57